^^
TXWeather Station Historical Data
Daily Summary for April 11, 2022 Units:  English    Metric   Both
Daily Weekly Monthly Yearly Custom
  High: Low: Average:
Temperature: 84.0 °F 69.0 °F 75.9 °F
Dew Point: 70.0 °F 64.0 °F 67.5 °F
Humidity: 88% 61% 76%
Wind Speed: 32mph 3mph 14.5mph
Wind Gust: 33mph - -
Wind- - SSE
Pressure: 30.0 in 29.8 in -
Precipitation: 0.090 in    
Historical Graphs
 
 
Tabular Data for April 11, 2022
Time Temperature Dew Point Pressure Wind Wind Speed Wind Gust Humidity Rainfall Rate (Hourly) solar
00:04 70.0 °F 65.0 °F 29.9 in SE 12 mph 12 mph 84% 0.000 in 0.00 W/m2
00:14 70.0 °F 65.0 °F 29.9 in SE 13 mph 16 mph 83% 0.000 in 0.00 W/m2
00:19 70.0 °F 64.0 °F 29.9 in SSE 12 mph 12 mph 82% 0.000 in 0.00 W/m2
00:24 70.0 °F 64.0 °F 29.9 in SE 14 mph 14 mph 82% 0.000 in 0.00 W/m2
00:29 70.0 °F 65.0 °F 29.9 in SSE 12 mph 14 mph 82% 0.000 in 0.00 W/m2
00:34 70.0 °F 64.0 °F 29.9 in SSE 11 mph 12 mph 81% 0.000 in 0.00 W/m2
00:39 71.0 °F 64.0 °F 29.9 in SE 11 mph 12 mph 81% 0.000 in 0.00 W/m2
00:44 71.0 °F 64.0 °F 29.9 in SE 12 mph 14 mph 81% 0.000 in 0.00 W/m2
00:49 71.0 °F 64.0 °F 29.9 in SE 12 mph 14 mph 81% 0.000 in 0.00 W/m2
00:54 71.0 °F 65.0 °F 29.9 in SSE 11 mph 14 mph 81% 0.000 in 0.00 W/m2
00:59 71.0 °F 65.0 °F 29.9 in SSE 13 mph 15 mph 81% 0.000 in 0.00 W/m2
01:04 71.0 °F 65.0 °F 29.9 in SSE 14 mph 16 mph 81% 0.000 in 0.00 W/m2
01:09 71.0 °F 65.0 °F 29.9 in SSE 16 mph 17 mph 81% 0.000 in 0.00 W/m2
01:14 71.0 °F 65.0 °F 29.9 in SSE 12 mph 17 mph 81% 0.000 in 0.00 W/m2
01:19 71.0 °F 65.0 °F 29.9 in SSE 9 mph 18 mph 81% 0.000 in 0.00 W/m2
01:24 71.0 °F 65.0 °F 29.9 in SSE 13 mph 18 mph 81% 0.000 in 0.00 W/m2
01:29 71.0 °F 65.0 °F 29.9 in SSE 14 mph 16 mph 81% 0.000 in 0.00 W/m2
01:34 71.0 °F 65.0 °F 29.9 in SE 12 mph 16 mph 81% 0.000 in 0.00 W/m2
01:39 71.0 °F 65.0 °F 29.9 in SSE 15 mph 15 mph 81% 0.000 in 0.00 W/m2
01:44 71.0 °F 65.0 °F 29.9 in SSE 13 mph 15 mph 81% 0.000 in 0.00 W/m2
01:49 71.0 °F 65.0 °F 29.9 in SSE 18 mph 18 mph 81% 0.000 in 0.00 W/m2
01:54 71.0 °F 65.0 °F 29.9 in SSE 11 mph 18 mph 81% 0.000 in 0.00 W/m2
01:59 71.0 °F 65.0 °F 29.9 in SSE 14 mph 14 mph 81% 0.000 in 0.00 W/m2
02:04 71.0 °F 65.0 °F 29.9 in SSE 12 mph 14 mph 82% 0.000 in 0.00 W/m2
02:09 71.0 °F 65.0 °F 29.9 in SSE 12 mph 14 mph 82% 0.000 in 0.00 W/m2
02:14 71.0 °F 65.0 °F 29.9 in SSE 10 mph 10 mph 82% 0.000 in 0.00 W/m2
02:19 71.0 °F 65.0 °F 29.9 in SSE 8 mph 10 mph 82% 0.000 in 0.00 W/m2
02:24 71.0 °F 65.0 °F 29.9 in South 14 mph 14 mph 82% 0.000 in 0.00 W/m2
02:29 71.0 °F 65.0 °F 29.9 in South 9 mph 14 mph 82% 0.000 in 0.00 W/m2
02:34 71.0 °F 65.0 °F 29.9 in SSE 13 mph 13 mph 82% 0.000 in 0.00 W/m2
02:39 71.0 °F 65.0 °F 29.9 in SSE 12 mph 13 mph 82% 0.000 in 0.00 W/m2
02:44 71.0 °F 65.0 °F 29.9 in SSE 11 mph 11 mph 82% 0.000 in 0.00 W/m2
02:49 71.0 °F 66.0 °F 29.9 in SSE 9 mph 14 mph 83% 0.000 in 0.00 W/m2
02:54 71.0 °F 66.0 °F 29.9 in SSE 8 mph 9 mph 83% 0.000 in 0.00 W/m2
02:59 71.0 °F 66.0 °F 29.9 in SSE 8 mph 12 mph 83% 0.000 in 0.00 W/m2
03:04 71.0 °F 66.0 °F 29.9 in SSE 10 mph 10 mph 83% 0.000 in 0.00 W/m2
03:09 71.0 °F 66.0 °F 29.9 in SSE 10 mph 14 mph 84% 0.000 in 0.00 W/m2
03:14 71.0 °F 66.0 °F 29.9 in SSE 13 mph 14 mph 84% 0.000 in 0.00 W/m2
03:19 71.0 °F 66.0 °F 29.9 in SE 11 mph 12 mph 84% 0.000 in 0.00 W/m2
03:24 71.0 °F 66.0 °F 29.9 in SE 15 mph 15 mph 84% 0.000 in 0.00 W/m2
03:29 71.0 °F 66.0 °F 29.9 in SSE 14 mph 15 mph 84% 0.000 in 0.00 W/m2
03:34 71.0 °F 66.0 °F 29.9 in SSE 15 mph 15 mph 84% 0.000 in 0.00 W/m2
03:39 71.0 °F 66.0 °F 29.9 in SSE 13 mph 15 mph 85% 0.000 in 0.00 W/m2
03:44 71.0 °F 66.0 °F 29.9 in SSE 13 mph 15 mph 85% 0.000 in 0.00 W/m2
03:49 71.0 °F 66.0 °F 29.9 in SSE 19 mph 19 mph 85% 0.000 in 0.00 W/m2
03:54 71.0 °F 66.0 °F 29.9 in SSE 16 mph 16 mph 85% 0.000 in 0.00 W/m2
03:59 71.0 °F 66.0 °F 29.9 in South 11 mph 14 mph 85% 0.000 in 0.00 W/m2
04:04 71.0 °F 66.0 °F 29.9 in SSE 10 mph 13 mph 85% 0.000 in 0.00 W/m2
04:09 70.0 °F 66.0 °F 29.9 in SSE 12 mph 13 mph 86% 0.000 in 0.00 W/m2
04:14 70.0 °F 66.0 °F 29.8 in SE 18 mph 18 mph 86% 0.000 in 0.00 W/m2
04:19 70.0 °F 66.0 °F 29.9 in South 10 mph 15 mph 86% 0.000 in 0.00 W/m2
04:24 70.0 °F 66.0 °F 29.9 in SW 10 mph 11 mph 86% 0.000 in 0.00 W/m2
04:29 70.0 °F 66.0 °F 29.9 in SW 8 mph 9 mph 86% 0.000 in 0.00 W/m2
04:34 71.0 °F 66.0 °F 29.9 in South 11 mph 11 mph 86% 0.000 in 0.00 W/m2
04:39 71.0 °F 66.0 °F 29.9 in SSE 19 mph 19 mph 86% 0.000 in 0.00 W/m2
04:44 71.0 °F 66.0 °F 29.9 in SSE 13 mph 16 mph 86% 0.000 in 0.00 W/m2
04:49 71.0 °F 66.0 °F 29.9 in SSE 16 mph 16 mph 86% 0.000 in 0.00 W/m2
04:54 71.0 °F 66.0 °F 29.8 in SSE 17 mph 19 mph 86% 0.000 in 0.00 W/m2
04:59 71.0 °F 66.0 °F 29.8 in SSE 17 mph 20 mph 87% 0.000 in 0.00 W/m2
05:04 70.0 °F 66.0 °F 29.8 in SSE 17 mph 18 mph 87% 0.000 in 0.00 W/m2
05:09 70.0 °F 66.0 °F 29.8 in SSE 17 mph 19 mph 87% 0.000 in 0.00 W/m2
05:14 70.0 °F 66.0 °F 29.8 in SSE 17 mph 23 mph 87% 0.000 in 0.00 W/m2
05:19 70.0 °F 66.0 °F 29.8 in SSE 16 mph 23 mph 87% 0.000 in 0.00 W/m2
05:24 70.0 °F 66.0 °F 29.9 in SSE 12 mph 14 mph 87% 0.000 in 0.00 W/m2
05:29 70.0 °F 66.0 °F 29.9 in South 17 mph 19 mph 87% 0.000 in 0.00 W/m2
05:34 70.0 °F 66.0 °F 29.9 in South 15 mph 16 mph 87% 0.000 in 0.00 W/m2
05:39 71.0 °F 66.0 °F 29.9 in SSE 18 mph 18 mph 87% 0.000 in 0.00 W/m2
05:44 71.0 °F 66.0 °F 29.9 in SSE 20 mph 20 mph 87% 0.000 in 0.00 W/m2
05:49 71.0 °F 66.0 °F 29.9 in SSE 25 mph 26 mph 87% 0.010 in 0.00 W/m2
05:54 71.0 °F 66.0 °F 29.9 in SSE 23 mph 32 mph 87% 0.010 in 0.00 W/m2
05:59 70.0 °F 66.0 °F 29.9 in SSE 14 mph 22 mph 87% 0.010 in 0.00 W/m2
06:04 70.0 °F 66.0 °F 29.9 in SSE 21 mph 21 mph 87% 0.010 in 0.00 W/m2
06:09 70.0 °F 66.0 °F 29.9 in SSE 26 mph 26 mph 87% 0.020 in 0.00 W/m2
06:14 70.0 °F 67.0 °F 29.8 in SSE 19 mph 26 mph 88% 0.020 in 0.00 W/m2
06:19 70.0 °F 66.0 °F 29.8 in SSE 23 mph 23 mph 88% 0.020 in 0.00 W/m2
06:24 70.0 °F 66.0 °F 29.8 in SSE 19 mph 21 mph 88% 0.020 in 0.00 W/m2
06:29 70.0 °F 66.0 °F 29.9 in South 14 mph 20 mph 88% 0.020 in 0.00 W/m2
06:34 70.0 °F 67.0 °F 30.0 in WSW 12 mph 20 mph 88% 0.030 in 0.00 W/m2
06:39 70.0 °F 67.0 °F 30.0 in West 15 mph 16 mph 88% 0.030 in 0.00 W/m2
06:44 70.0 °F 67.0 °F 30.0 in SW 12 mph 13 mph 88% 0.030 in 0.00 W/m2
06:49 71.0 °F 67.0 °F 30.0 in SSW 9 mph 13 mph 88% 0.030 in 0.00 W/m2
06:54 71.0 °F 67.0 °F 30.0 in SW 10 mph 10 mph 88% 0.020 in 0.00 W/m2
06:59 71.0 °F 67.0 °F 30.0 in SSW 4 mph 10 mph 88% 0.020 in 0.00 W/m2
07:04 71.0 °F 67.0 °F 30.0 in SSW 8 mph 8 mph 88% 0.020 in 0.00 W/m2
07:09 71.0 °F 67.0 °F 30.0 in South 9 mph 9 mph 88% 0.020 in 0.00 W/m2
07:14 71.0 °F 67.0 °F 30.0 in SW 5 mph 9 mph 88% 0.020 in 0.00 W/m2
07:19 70.0 °F 67.0 °F 30.0 in WNW 6 mph 6 mph 88% 0.020 in 0.00 W/m2
07:24 70.0 °F 67.0 °F 30.0 in West 3 mph 6 mph 88% 0.020 in 0.00 W/m2
07:29 70.0 °F 67.0 °F 30.0 in South 10 mph 10 mph 88% 0.020 in 0.00 W/m2
07:34 70.0 °F 67.0 °F 30.0 in South 13 mph 16 mph 88% 0.020 in 0.00 W/m2
07:39 70.0 °F 67.0 °F 30.0 in SSE 13 mph 16 mph 88% 0.010 in 0.00 W/m2
07:44 70.0 °F 66.0 °F 29.9 in SE 15 mph 15 mph 88% 0.010 in 0.00 W/m2
07:49 70.0 °F 66.0 °F 29.9 in SSE 14 mph 15 mph 88% 0.010 in 0.00 W/m2
07:54 70.0 °F 66.0 °F 29.9 in SSE 14 mph 15 mph 88% 0.020 in 5.00 W/m2
07:59 70.0 °F 66.0 °F 29.9 in SE 17 mph 17 mph 88% 0.020 in 5.00 W/m2
08:04 69.0 °F 66.0 °F 29.9 in SSE 15 mph 18 mph 88% 0.020 in 12.00 W/m2
08:09 69.0 °F 66.0 °F 29.9 in South 13 mph 16 mph 88% 0.020 in 23.00 W/m2
08:14 69.0 °F 65.0 °F 29.9 in South 14 mph 15 mph 88% 0.020 in 32.00 W/m2
08:19 69.0 °F 65.0 °F 29.9 in SSE 13 mph 16 mph 88% 0.010 in 40.00 W/m2
08:24 69.0 °F 65.0 °F 29.9 in SSE 14 mph 16 mph 87% 0.010 in 54.00 W/m2
08:29 69.0 °F 65.0 °F 29.9 in South 15 mph 18 mph 87% 0.010 in 58.00 W/m2
08:34 69.0 °F 65.0 °F 29.9 in SSE 13 mph 18 mph 86% 0.010 in 98.00 W/m2
08:39 69.0 °F 65.0 °F 29.9 in SSE 13 mph 14 mph 86% 0.010 in 90.00 W/m2
08:44 70.0 °F 65.0 °F 29.9 in SSE 16 mph 18 mph 85% 0.010 in 202.00 W/m2
08:49 70.0 °F 65.0 °F 29.9 in SSE 16 mph 18 mph 85% 0.020 in 53.00 W/m2
08:54 70.0 °F 65.0 °F 29.9 in SSE 17 mph 17 mph 84% 0.020 in 218.00 W/m2
08:59 71.0 °F 65.0 °F 29.9 in SSE 19 mph 19 mph 83% 0.010 in 299.00 W/m2
09:04 71.0 °F 66.0 °F 29.9 in SSE 17 mph 21 mph 83% 0.010 in 316.00 W/m2
09:09 72.0 °F 67.0 °F 29.9 in SSE 18 mph 19 mph 83% 0.010 in 348.00 W/m2
09:14 73.0 °F 67.0 °F 29.9 in SSE 22 mph 22 mph 82% 0.010 in 396.00 W/m2
09:19 73.0 °F 68.0 °F 29.9 in SSE 23 mph 23 mph 82% 0.010 in 418.00 W/m2
09:24 74.0 °F 68.0 °F 29.8 in SSE 20 mph 23 mph 81% 0.010 in 443.00 W/m2
09:29 74.0 °F 68.0 °F 29.8 in SSE 20 mph 24 mph 80% 0.010 in 234.00 W/m2
09:34 74.0 °F 68.0 °F 29.9 in SSE 17 mph 21 mph 80% 0.010 in 329.00 W/m2
09:39 75.0 °F 68.0 °F 29.9 in SSE 16 mph 21 mph 80% 0.010 in 548.00 W/m2
09:44 75.0 °F 68.0 °F 29.9 in SSE 19 mph 19 mph 80% 0.010 in 589.00 W/m2
09:49 75.0 °F 68.0 °F 29.9 in SSE 21 mph 23 mph 79% 0.010 in 598.00 W/m2
09:54 76.0 °F 68.0 °F 29.9 in SSE 19 mph 23 mph 78% 0.000 in 598.00 W/m2
09:59 75.0 °F 68.0 °F 29.9 in SSE 21 mph 22 mph 77% 0.000 in 113.00 W/m2
10:04 75.0 °F 68.0 °F 29.9 in SSE 18 mph 22 mph 77% 0.010 in 195.00 W/m2
10:09 75.0 °F 67.0 °F 29.9 in SSE 21 mph 22 mph 77% 0.010 in 195.00 W/m2
10:14 75.0 °F 67.0 °F 29.9 in SSE 18 mph 23 mph 77% 0.010 in 589.00 W/m2
10:19 76.0 °F 68.0 °F 29.9 in SSE 20 mph 24 mph 77% 0.010 in 594.00 W/m2
10:24 77.0 °F 68.0 °F 29.9 in SSE 20 mph 24 mph 77% 0.010 in 608.00 W/m2
10:29 77.0 °F 69.0 °F 29.9 in SE 20 mph 20 mph 76% 0.010 in 633.00 W/m2
10:34 78.0 °F 68.0 °F 29.9 in SSE 25 mph 26 mph 74% 0.010 in 659.00 W/m2
10:39 78.0 °F 67.0 °F 29.9 in SSE 24 mph 30 mph 68% 0.010 in 701.00 W/m2
10:44 78.0 °F 67.0 °F 29.9 in SSE 24 mph 24 mph 68% 0.010 in 701.00 W/m2
10:49 78.0 °F 66.0 °F 29.9 in SSE 32 mph 33 mph 67% 0.010 in 577.00 W/m2
10:54 78.0 °F 66.0 °F 29.9 in SSE 24 mph 25 mph 67% 0.010 in 788.00 W/m2
10:59 78.0 °F 66.0 °F 29.9 in SE 25 mph 26 mph 67% 0.010 in 192.00 W/m2
11:04 78.0 °F 66.0 °F 29.9 in SE 26 mph 29 mph 68% 0.010 in 780.00 W/m2
11:09 78.0 °F 67.0 °F 29.9 in SE 15 mph 21 mph 68% 0.000 in 809.00 W/m2
11:14 79.0 °F 68.0 °F 29.9 in SSE 22 mph 23 mph 68% 0.000 in 838.00 W/m2
11:19 80.0 °F 68.0 °F 29.9 in SSE 26 mph 26 mph 68% 0.000 in 838.00 W/m2
11:24 80.0 °F 67.0 °F 29.9 in SSE 17 mph 20 mph 64% 0.000 in 819.00 W/m2
11:29 80.0 °F 67.0 °F 29.9 in SSE 22 mph 26 mph 64% 0.000 in 814.00 W/m2
11:34 80.0 °F 67.0 °F 29.9 in SE 19 mph 25 mph 64% 0.000 in 816.00 W/m2
11:39 81.0 °F 68.0 °F 29.9 in SSE 20 mph 24 mph 64% 0.000 in 828.00 W/m2
11:44 81.0 °F 68.0 °F 29.9 in SSE 17 mph 22 mph 64% 0.000 in 816.00 W/m2
11:49 81.0 °F 68.0 °F 29.9 in SE 20 mph 20 mph 65% 0.000 in 814.00 W/m2
11:54 82.0 °F 68.0 °F 29.9 in SSE 19 mph 20 mph 64% 0.000 in 828.00 W/m2
11:59 82.0 °F 69.0 °F 29.9 in SSE 16 mph 17 mph 64% 0.000 in 849.00 W/m2
12:04 82.0 °F 68.0 °F 29.9 in SSE 19 mph 19 mph 63% 0.010 in 875.00 W/m2
12:09 82.0 °F 69.0 °F 29.9 in SE 19 mph 22 mph 63% 0.010 in 930.00 W/m2
12:14 83.0 °F 69.0 °F 29.9 in SSE 20 mph 21 mph 63% 0.010 in 1005.00 W/m2
12:19 82.0 °F 68.0 °F 29.9 in SSE 16 mph 20 mph 63% 0.010 in 1005.00 W/m2
12:24 82.0 °F 68.0 °F 29.9 in SSE 21 mph 21 mph 65% 0.010 in 953.00 W/m2
12:29 82.0 °F 69.0 °F 29.9 in SSE 17 mph 20 mph 65% 0.010 in 1058.00 W/m2
12:34 82.0 °F 69.0 °F 29.9 in SSE 17 mph 20 mph 64% 0.010 in 1025.00 W/m2
12:39 83.0 °F 69.0 °F 29.9 in SSE 17 mph 19 mph 64% 0.010 in 1025.00 W/m2
12:44 82.0 °F 68.0 °F 29.9 in SSE 21 mph 21 mph 62% 0.010 in 315.00 W/m2
12:49 82.0 °F 68.0 °F 29.9 in SSE 15 mph 17 mph 64% 0.010 in 517.00 W/m2
12:54 81.0 °F 68.0 °F 29.9 in SSE 18 mph 19 mph 65% 0.010 in 517.00 W/m2
12:59 82.0 °F 69.0 °F 29.9 in SSE 13 mph 16 mph 65% 0.010 in 483.00 W/m2
13:04 82.0 °F 69.0 °F 29.9 in SSE 18 mph 20 mph 64% 0.010 in 483.00 W/m2
13:09 82.0 °F 69.0 °F 29.9 in SSE 15 mph 20 mph 65% 0.000 in 719.00 W/m2
13:14 82.0 °F 69.0 °F 29.9 in SSE 19 mph 20 mph 65% 0.000 in 445.00 W/m2
13:19 82.0 °F 69.0 °F 29.9 in SSE 16 mph 20 mph 65% 0.000 in 439.00 W/m2
13:24 83.0 °F 70.0 °F 29.9 in SSE 15 mph 15 mph 65% 0.000 in 431.00 W/m2
13:29 83.0 °F 70.0 °F 29.9 in SSE 19 mph 22 mph 65% 0.000 in 359.00 W/m2
13:34 82.0 °F 69.0 °F 29.9 in SSE 17 mph 17 mph 64% 0.000 in 380.00 W/m2
13:39 82.0 °F 69.0 °F 29.9 in SSE 18 mph 18 mph 64% 0.000 in 756.00 W/m2
13:44 82.0 °F 69.0 °F 29.9 in SSE 15 mph 18 mph 64% 0.000 in 756.00 W/m2
13:49 82.0 °F 69.0 °F 29.9 in SSE 17 mph 17 mph 64% 0.000 in 350.00 W/m2
13:54 82.0 °F 69.0 °F 29.9 in SSE 13 mph 17 mph 64% 0.000 in 357.00 W/m2
13:59 82.0 °F 69.0 °F 29.9 in SSE 16 mph 16 mph 64% 0.000 in 359.00 W/m2
14:04 82.0 °F 69.0 °F 29.9 in SSE 13 mph 16 mph 64% 0.000 in 399.00 W/m2
14:09 83.0 °F 69.0 °F 29.9 in SE 18 mph 18 mph 64% 0.000 in 1155.00 W/m2
14:14 84.0 °F 70.0 °F 29.9 in SE 16 mph 16 mph 65% 0.000 in 1155.00 W/m2
14:19 84.0 °F 69.0 °F 29.9 in SSE 13 mph 14 mph 62% 0.000 in 336.00 W/m2
14:24 83.0 °F 68.0 °F 29.9 in SSE 16 mph 16 mph 61% 0.000 in 251.00 W/m2
14:29 83.0 °F 68.0 °F 29.9 in South 9 mph 15 mph 62% 0.000 in 251.00 W/m2
14:34 83.0 °F 68.0 °F 29.9 in SSE 14 mph 18 mph 62% 0.010 in 181.00 W/m2
14:39 82.0 °F 68.0 °F 29.9 in SSE 12 mph 14 mph 63% 0.010 in 258.00 W/m2
14:44 82.0 °F 68.0 °F 29.9 in SSE 9 mph 10 mph 63% 0.010 in 285.00 W/m2
14:49 82.0 °F 69.0 °F 29.9 in SSE 18 mph 18 mph 64% 0.010 in 253.00 W/m2
14:54 82.0 °F 68.0 °F 29.9 in SSE 12 mph 15 mph 63% 0.010 in 306.00 W/m2
14:59 82.0 °F 69.0 °F 29.9 in SSE 13 mph 13 mph 64% 0.010 in 320.00 W/m2
15:04 82.0 °F 69.0 °F 29.9 in SSE 11 mph 11 mph 64% 0.010 in 294.00 W/m2
15:09 82.0 °F 69.0 °F 29.9 in SSE 9 mph 10 mph 64% 0.010 in 281.00 W/m2
15:14 82.0 °F 69.0 °F 29.9 in SSE 14 mph 14 mph 64% 0.010 in 390.00 W/m2
15:19 83.0 °F 69.0 °F 29.9 in SSE 13 mph 15 mph 63% 0.010 in 475.00 W/m2
15:24 83.0 °F 69.0 °F 29.9 in SSE 15 mph 18 mph 64% 0.010 in 404.00 W/m2
15:29 83.0 °F 69.0 °F 29.9 in SE 14 mph 15 mph 64% 0.010 in 413.00 W/m2
15:34 83.0 °F 69.0 °F 29.9 in SE 16 mph 16 mph 64% 0.010 in 330.00 W/m2
15:39 83.0 °F 69.0 °F 29.9 in SSE 11 mph 16 mph 63% 0.000 in 274.00 W/m2
15:44 83.0 °F 69.0 °F 29.9 in SSE 12 mph 12 mph 63% 0.000 in 320.00 W/m2
15:49 83.0 °F 69.0 °F 29.9 in SSE 14 mph 15 mph 63% 0.000 in 376.00 W/m2
15:54 83.0 °F 69.0 °F 29.9 in SSE 11 mph 15 mph 63% 0.000 in 304.00 W/m2
15:59 83.0 °F 69.0 °F 29.9 in SSE 12 mph 14 mph 63% 0.000 in 213.00 W/m2
16:04 83.0 °F 69.0 °F 29.9 in SSE 16 mph 16 mph 63% 0.000 in 178.00 W/m2
16:09 82.0 °F 68.0 °F 29.9 in SE 13 mph 16 mph 63% 0.000 in 155.00 W/m2
16:14 82.0 °F 69.0 °F 29.9 in SSE 15 mph 15 mph 64% 0.000 in 214.00 W/m2
16:19 82.0 °F 69.0 °F 29.8 in SSE 12 mph 15 mph 64% 0.000 in 241.00 W/m2
16:24 82.0 °F 69.0 °F 29.8 in SSE 12 mph 13 mph 64% 0.000 in 214.00 W/m2
16:29 82.0 °F 69.0 °F 29.8 in SSE 11 mph 12 mph 64% 0.000 in 202.00 W/m2
16:34 82.0 °F 69.0 °F 29.8 in SE 10 mph 11 mph 64% 0.000 in 202.00 W/m2
16:39 82.0 °F 69.0 °F 29.8 in South 14 mph 14 mph 65% 0.000 in 218.00 W/m2
16:44 82.0 °F 69.0 °F 29.8 in SSE 9 mph 13 mph 64% 0.000 in 183.00 W/m2
16:49 82.0 °F 69.0 °F 29.8 in SSE 12 mph 15 mph 65% 0.000 in 213.00 W/m2
16:54 82.0 °F 69.0 °F 29.8 in SE 15 mph 16 mph 65% 0.000 in 213.00 W/m2
16:59 82.0 °F 69.0 °F 29.8 in SSE 13 mph 14 mph 65% 0.000 in 185.00 W/m2
17:04 82.0 °F 69.0 °F 29.8 in SE 14 mph 14 mph 65% 0.000 in 199.00 W/m2
17:09 82.0 °F 69.0 °F 29.8 in SSE 11 mph 13 mph 65% 0.000 in 237.00 W/m2
17:14 82.0 °F 69.0 °F 29.8 in SSE 16 mph 17 mph 65% 0.000 in 278.00 W/m2
17:19 82.0 °F 69.0 °F 29.8 in SE 10 mph 12 mph 65% 0.000 in 278.00 W/m2
17:24 82.0 °F 69.0 °F 29.8 in SE 11 mph 14 mph 65% 0.000 in 158.00 W/m2
17:29 82.0 °F 69.0 °F 29.8 in SE 14 mph 15 mph 65% 0.000 in 186.00 W/m2
17:34 82.0 °F 69.0 °F 29.8 in SE 13 mph 16 mph 65% 0.000 in 193.00 W/m2
17:39 82.0 °F 69.0 °F 29.8 in SSE 13 mph 16 mph 65% 0.000 in 134.00 W/m2
17:44 82.0 °F 69.0 °F 29.8 in SE 13 mph 13 mph 65% 0.000 in 206.00 W/m2
17:49 82.0 °F 69.0 °F 29.8 in SSE 12 mph 15 mph 65% 0.000 in 206.00 W/m2
17:54 82.0 °F 69.0 °F 29.8 in SSE 12 mph 12 mph 65% 0.000 in 130.00 W/m2
17:59 81.0 °F 69.0 °F 29.8 in SE 12 mph 13 mph 66% 0.000 in 125.00 W/m2
18:04 81.0 °F 69.0 °F 29.8 in SE 15 mph 15 mph 66% 0.000 in 148.00 W/m2
18:09 81.0 °F 69.0 °F 29.8 in SSE 10 mph 14 mph 67% 0.000 in 183.00 W/m2
18:14 81.0 °F 69.0 °F 29.8 in SE 14 mph 14 mph 67% 0.000 in 188.00 W/m2
18:19 81.0 °F 69.0 °F 29.8 in SE 16 mph 17 mph 67% 0.000 in 139.00 W/m2
18:24 81.0 °F 69.0 °F 29.8 in SSE 18 mph 18 mph 66% 0.000 in 130.00 W/m2
18:29 81.0 °F 69.0 °F 29.8 in SSE 10 mph 18 mph 66% 0.000 in 111.00 W/m2
18:34 81.0 °F 69.0 °F 29.8 in SSE 14 mph 15 mph 66% 0.000 in 113.00 W/m2
18:39 81.0 °F 69.0 °F 29.8 in SE 13 mph 15 mph 67% 0.000 in 132.00 W/m2
18:44 81.0 °F 69.0 °F 29.8 in SSE 14 mph 15 mph 67% 0.000 in 111.00 W/m2
18:49 81.0 °F 69.0 °F 29.8 in SSE 15 mph 15 mph 67% 0.000 in 81.00 W/m2
18:54 80.0 °F 69.0 °F 29.8 in SSE 11 mph 14 mph 67% 0.000 in 72.00 W/m2
18:59 80.0 °F 68.0 °F 29.8 in SSE 14 mph 15 mph 67% 0.000 in 47.00 W/m2
19:04 80.0 °F 69.0 °F 29.8 in SSE 14 mph 16 mph 68% 0.000 in 51.00 W/m2
19:09 80.0 °F 68.0 °F 29.8 in SSE 15 mph 15 mph 68% 0.000 in 40.00 W/m2
19:14 80.0 °F 69.0 °F 29.8 in SSE 13 mph 16 mph 69% 0.000 in 32.00 W/m2
19:19 80.0 °F 69.0 °F 29.8 in SSE 13 mph 13 mph 69% 0.000 in 18.00 W/m2
19:24 80.0 °F 69.0 °F 29.9 in SSE 12 mph 14 mph 70% 0.000 in 16.00 W/m2
19:29 79.0 °F 69.0 °F 29.9 in SSE 12 mph 12 mph 71% 0.000 in 7.00 W/m2
19:34 79.0 °F 69.0 °F 29.9 in SSE 11 mph 12 mph 71% 0.000 in 5.00 W/m2
19:39 79.0 °F 69.0 °F 29.9 in SE 14 mph 14 mph 72% 0.000 in 5.00 W/m2
19:44 79.0 °F 69.0 °F 29.9 in SE 15 mph 16 mph 72% 0.000 in 0.00 W/m2
19:49 79.0 °F 69.0 °F 29.9 in SE 12 mph 13 mph 73% 0.000 in 0.00 W/m2
19:54 78.0 °F 69.0 °F 29.9 in SE 15 mph 15 mph 74% 0.000 in 0.00 W/m2
19:59 78.0 °F 69.0 °F 29.9 in SE 12 mph 12 mph 74% 0.000 in 0.00 W/m2
20:04 78.0 °F 69.0 °F 29.9 in SSE 11 mph 12 mph 74% 0.000 in 0.00 W/m2
20:09 78.0 °F 69.0 °F 29.9 in SE 14 mph 14 mph 75% 0.000 in 0.00 W/m2
20:14 78.0 °F 69.0 °F 29.9 in SSE 15 mph 15 mph 75% 0.000 in 0.00 W/m2
20:19 78.0 °F 69.0 °F 29.9 in SE 16 mph 16 mph 76% 0.000 in 0.00 W/m2
20:24 77.0 °F 69.0 °F 29.9 in SSE 12 mph 17 mph 76% 0.000 in 0.00 W/m2
20:29 77.0 °F 69.0 °F 29.9 in SSE 14 mph 17 mph 76% 0.000 in 0.00 W/m2
20:34 77.0 °F 69.0 °F 29.9 in SSE 12 mph 12 mph 77% 0.000 in 0.00 W/m2
20:39 77.0 °F 69.0 °F 29.9 in SSE 11 mph 12 mph 77% 0.000 in 0.00 W/m2
20:44 77.0 °F 69.0 °F 29.9 in SSE 18 mph 18 mph 77% 0.000 in 0.00 W/m2
20:49 77.0 °F 69.0 °F 29.9 in SSE 14 mph 14 mph 77% 0.000 in 0.00 W/m2
20:54 77.0 °F 69.0 °F 29.9 in SE 12 mph 14 mph 78% 0.000 in 0.00 W/m2
20:59 77.0 °F 69.0 °F 29.9 in SE 11 mph 14 mph 78% 0.000 in 0.00 W/m2
21:04 77.0 °F 69.0 °F 29.9 in SE 12 mph 14 mph 78% 0.000 in 0.00 W/m2
21:09 77.0 °F 69.0 °F 29.9 in SE 14 mph 14 mph 78% 0.000 in 0.00 W/m2
21:14 76.0 °F 69.0 °F 29.9 in SE 16 mph 17 mph 79% 0.000 in 0.00 W/m2
21:19 76.0 °F 69.0 °F 29.9 in SE 13 mph 17 mph 79% 0.000 in 0.00 W/m2
21:29 76.0 °F 69.0 °F 29.9 in SE 13 mph 13 mph 79% 0.000 in 0.00 W/m2
21:34 76.0 °F 69.0 °F 29.9 in SE 16 mph 16 mph 80% 0.000 in 0.00 W/m2
21:39 76.0 °F 69.0 °F 29.9 in SSE 12 mph 14 mph 80% 0.000 in 0.00 W/m2
21:44 76.0 °F 69.0 °F 29.9 in SSE 13 mph 13 mph 80% 0.000 in 0.00 W/m2
21:49 76.0 °F 69.0 °F 29.9 in SE 11 mph 13 mph 80% 0.000 in 0.00 W/m2
21:54 76.0 °F 69.0 °F 29.9 in SSE 16 mph 16 mph 81% 0.000 in 0.00 W/m2
21:59 76.0 °F 69.0 °F 29.9 in SSE 11 mph 16 mph 81% 0.000 in 0.00 W/m2
22:04 75.0 °F 69.0 °F 29.9 in SSE 11 mph 14 mph 81% 0.000 in 0.00 W/m2
22:09 75.0 °F 69.0 °F 29.9 in SSE 11 mph 14 mph 82% 0.000 in 0.00 W/m2
22:14 75.0 °F 69.0 °F 29.9 in SSE 10 mph 12 mph 82% 0.000 in 0.00 W/m2
22:19 75.0 °F 69.0 °F 29.9 in SSE 9 mph 14 mph 82% 0.000 in 0.00 W/m2
22:24 75.0 °F 69.0 °F 29.9 in SSE 10 mph 13 mph 82% 0.000 in 0.00 W/m2
22:29 75.0 °F 69.0 °F 29.9 in SSE 13 mph 13 mph 83% 0.000 in 0.00 W/m2
22:34 75.0 °F 69.0 °F 29.9 in SSE 11 mph 11 mph 83% 0.000 in 0.00 W/m2
22:39 75.0 °F 69.0 °F 29.9 in SE 11 mph 11 mph 82% 0.000 in 0.00 W/m2
22:44 75.0 °F 69.0 °F 29.9 in SE 11 mph 11 mph 83% 0.000 in 0.00 W/m2
22:49 75.0 °F 69.0 °F 29.9 in SSE 14 mph 16 mph 82% 0.000 in 0.00 W/m2
22:54 75.0 °F 69.0 °F 29.9 in SE 13 mph 14 mph 83% 0.000 in 0.00 W/m2
22:59 75.0 °F 69.0 °F 29.9 in SSE 13 mph 16 mph 82% 0.000 in 0.00 W/m2
23:04 75.0 °F 69.0 °F 29.9 in SSE 16 mph 16 mph 82% 0.000 in 0.00 W/m2
23:09 75.0 °F 69.0 °F 29.9 in SSE 12 mph 13 mph 82% 0.000 in 0.00 W/m2
23:14 75.0 °F 69.0 °F 29.9 in SE 14 mph 15 mph 82% 0.000 in 0.00 W/m2
23:19 75.0 °F 69.0 °F 29.9 in SSE 14 mph 14 mph 82% 0.000 in 0.00 W/m2
23:24 75.0 °F 69.0 °F 29.9 in SSE 15 mph 15 mph 82% 0.000 in 0.00 W/m2
23:29 75.0 °F 69.0 °F 29.9 in SSE 10 mph 12 mph 83% 0.000 in 0.00 W/m2
23:34 75.0 °F 69.0 °F 29.9 in SE 13 mph 15 mph 83% 0.000 in 0.00 W/m2
23:39 75.0 °F 69.0 °F 29.9 in SE 13 mph 15 mph 83% 0.000 in 0.00 W/m2
23:44 74.0 °F 69.0 °F 29.9 in SSE 10 mph 14 mph 83% 0.000 in 0.00 W/m2
23:49 74.0 °F 69.0 °F 29.9 in SSE 18 mph 18 mph 83% 0.000 in 0.00 W/m2
23:54 74.0 °F 69.0 °F 29.9 in SSE 15 mph 18 mph 83% 0.000 in 0.00 W/m2
23:59 74.0 °F 69.0 °F 29.9 in SE 12 mph 12 mph 83% 0.000 in 0.00 W/m2
Villages of Bridgestone, Spring, TX USA
Compliments of Weather Underground - 4 mb